Δεν απαιτείται κάποια ιδιαίτερη επαγρύπνηση.    Δεν υπάρχει έκτακτο δελτίο καιρού

Οι άλλοι ιστότοποί μου:

SYKIA HOMEWEATHERSTATIONsikeaweather.alinos.eu

SYKIA METEOTEMPLATEsykiameteo.alinos.eu

alinos.eualinos.eu



Αναφορές γειτονικών METAR

   
LGEL - Elefsis (hel-Afb, Greece
Απόσταση από τον σταθμό: Α 77 km
Ενημερώθηκε: 27-02-2021 13:20
Αίθριος  
Αίθριος  
   Ανεμος: Νότια 11.1 km/h
Ανεμος: Νότια 11.1 km/h
Θερμοκρασία: 19°C
Σημείο Δρόσου: 6°C
Υγρασία: 43%
Βαρόμετρο: 1018 hPa
Ορατότητα: More than 10 km
Στοιχεία νεφών: Αίθριος
LGEL 271120Z 18006KT CAVOK 19/06 Q1018
LGRX - Araxos (civ/Afb), Greece
Απόσταση από τον σταθμό: Δ 110 km
Ενημερώθηκε: 27-02-2021 13:20
Αίθριος  
Αίθριος  
   Ανεμος: Δυτικά 7.4 km/h
Ανεμος: Δυτικά 7.4 km/h
Θερμοκρασία: 17°C
Σημείο Δρόσου: 10°C
Υγρασία: 64%
Βαρόμετρο: 1020 hPa
Ορατότητα: More than 10 km
Στοιχεία νεφών: Αίθριος
LGRX 271120Z 27004KT CAVOK 17/10 Q1020
LGAV - Athens/Elef-Ven, Greece
Απόσταση από τον σταθμό: Α 113 km
Ενημερώθηκε: 27-02-2021 13:20
Αίθριος  
Αίθριος  
   Ανεμος: ΑΒΑ 9.3 km/h
Ανεμος: ΑΒΑ 9.3 km/h
Θερμοκρασία: 17°C
Σημείο Δρόσου: 6°C
Υγρασία: 49%
Βαρόμετρο: 1020 hPa
Ορατότητα: More than 10 km
Στοιχεία νεφών: Αίθριος
LGAV 271120Z 06005KT 360V140 CAVOK 17/06 Q1020 NOSIG
LGAD - Andravida (civ/A, Greece
Απόσταση από τον σταθμό: Δ 124 km
Ενημερώθηκε: 27-02-2021 13:20
Διάσπαρτα νέφη  
Διάσπαρτα νέφη  
   Ανεμος: ΔΒΔ 11.1 km/h
Ανεμος: ΔΒΔ 11.1 km/h
Θερμοκρασία: 18°C
Σημείο Δρόσου: 10°C
Υγρασία: 60%
Βαρόμετρο: 1020 hPa
Νεφώσεις: Διάσπαρτα νέφη
Ορατότητα: More than 10 km
Στοιχεία νεφών: Διάσπαρτα νέφη 2000 ft
LGAD 271120Z 30006KT 9999 FEW020 18/10 Q1020
LGKL - Kalamata (hel-Af, Greece
Απόσταση από τον σταθμό: ΝΝΔ 124 km
Ενημερώθηκε: 27-02-2021 13:20
Διάσπαρτα νέφη  
Διάσπαρτα νέφη  
   Ανεμος: Νότια 11.1 km/h
Ανεμος: Νότια 11.1 km/h
Θερμοκρασία: 18°C
Σημείο Δρόσου: 9°C
Υγρασία: 56%
Βαρόμετρο: 1020 hPa
Νεφώσεις: Διάσπαρτα νέφη
Ορατότητα: More than 10 km
Στοιχεία νεφών: Διάσπαρτα νέφη 3000 ft
LGKL 271120Z 17006KT 9999 FEW030 18/09 Q1020
LGBL - Nea Anchialos, Greece
Απόσταση από τον σταθμό: Β 129 km
Ενημερώθηκε: 27-02-2021 13:20
Αίθριος  
Αίθριος  
   Ανεμος: Ανατολικά 7.4 km/h
Ανεμος: Ανατολικά 7.4 km/h
Θερμοκρασία: 18°C
Σημείο Δρόσου: 9°C
Υγρασία: 56%
Βαρόμετρο: 1019 hPa
Ορατότητα: More than 10 km
Στοιχεία νεφών: Αίθριος
LGBL 271120Z 09004KT CAVOK 18/09 Q1019

Αρχική γραφή από  Saratoga-weather.org Προσαρμογή στον ιστότοπο από  Weerstation Leuven

Βλέπε επίσης τις ενημερώσεις τού σταθμού μας στα παρακάτω δίκτυα:

European Weather Network

Weather Underground

AWEKAS

Citizen Weather Observer Program (CWOP)

UK Metoffice

Equipment we use:

Μετεωρολογικός σταθμός
Davis Wireless Vantage Pro2

Davis Wireless Vantage Pro2